Time;durP1;ratioP1;P1;durP2;ratioP2;P2;SDS_P1;SDS_P2;PMS_P1;PMS_P2;Temp;Humidity;BMP_temperature;BMP_pressure;BME280_temperature;BME280_humidity;BME280_pressure;Samples;Min_cycle;Max_cycle;Signal;HPM_P1;HPM_P2
2023/01/13 00:01:52;;;;;;;7.90;2.90;;;10.90;99.90;;;;;;5015533;28;20265;-82
2023/01/13 00:04:19;;;;;;;7.17;2.80;;;10.90;99.90;;;;;;5014757;28;20202;-82
2023/01/13 00:06:46;;;;;;;8.60;3.13;;;11.00;99.90;;;;;;4999504;28;20213;-82
2023/01/13 00:09:14;;;;;;;7.13;2.57;;;10.90;99.90;;;;;;5011926;28;20489;-82
2023/01/13 00:11:41;;;;;;;10.20;3.13;;;10.90;99.90;;;;;;5016124;28;20194;-82
2023/01/13 00:14:08;;;;;;;8.43;2.80;;;10.90;99.90;;;;;;5013986;28;20230;-82
2023/01/13 00:16:35;;;;;;;8.67;3.03;;;10.90;99.90;;;;;;5016260;28;20214;-81
2023/01/13 00:19:02;;;;;;;8.27;3.07;;;10.90;99.90;;;;;;4999201;28;20236;-81
2023/01/13 00:21:29;;;;;;;8.87;3.23;;;10.90;99.90;;;;;;4998347;28;20296;-82
2023/01/13 00:23:55;;;;;;;11.23;3.03;;;10.90;99.90;;;;;;5016144;28;20198;-81
2023/01/13 00:26:26;;;;;;;9.50;3.07;;;10.90;99.90;;;;;;4997477;28;20253;-81
2023/01/13 00:28:58;;;;;;;8.57;2.90;;;10.90;99.90;;;;;;5015279;28;20241;-81
2023/01/13 00:31:26;;;;;;;7.47;2.80;;;10.90;99.90;;;;;;5000594;28;20214;-82
2023/01/13 00:33:55;;;;;;;9.00;3.03;;;10.90;99.90;;;;;;5000898;28;20230;-82
2023/01/13 00:36:22;;;;;;;11.63;3.43;;;10.90;99.90;;;;;;5008628;28;20238;-82
2023/01/13 00:38:49;;;;;;;10.13;3.20;;;10.90;99.90;;;;;;5009762;28;20226;-82
2023/01/13 00:41:18;;;;;;;9.07;3.13;;;10.80;99.90;;;;;;5013650;28;20260;-81
2023/01/13 00:43:46;;;;;;;11.80;3.03;;;10.90;99.90;;;;;;5015064;28;20213;-82
2023/01/13 00:46:15;;;;;;;9.20;3.07;;;10.90;99.90;;;;;;4997165;28;20238;-82
2023/01/13 00:48:42;;;;;;;9.77;2.87;;;10.90;99.90;;;;;;5014556;28;20297;-81
2023/01/13 00:51:12;;;;;;;11.23;3.30;;;11.00;99.90;;;;;;4998980;28;20221;-81
2023/01/13 00:53:41;;;;;;;8.40;3.07;;;11.00;99.90;;;;;;5005083;28;20229;-81
2023/01/13 00:56:13;;;;;;;10.47;2.97;;;10.90;99.90;;;;;;5002852;28;20218;-82
2023/01/13 00:58:40;;;;;;;11.10;3.23;;;10.90;99.90;;;;;;4999119;28;20222;-81
2023/01/13 01:01:10;;;;;;;11.40;3.80;;;10.90;99.90;;;;;;5016107;28;20647;-81
2023/01/13 01:03:37;;;;;;;12.20;2.97;;;10.90;99.90;;;;;;5016714;28;20213;-82
2023/01/13 01:06:06;;;;;;;11.67;3.30;;;10.90;99.90;;;;;;5016242;28;20231;-81
2023/01/13 01:08:34;;;;;;;13.43;3.33;;;10.80;99.90;;;;;;5004578;28;20233;-81
2023/01/13 01:11:02;;;;;;;11.73;3.30;;;10.80;99.90;;;;;;5015354;28;20218;-82
2023/01/13 01:13:29;;;;;;;12.77;3.50;;;10.70;99.90;;;;;;5004411;28;20357;-81
2023/01/13 01:15:56;;;;;;;14.93;3.50;;;10.80;99.90;;;;;;5014746;28;20202;-82
2023/01/13 01:18:25;;;;;;;9.83;2.93;;;10.70;99.90;;;;;;5012542;28;20297;-82
2023/01/13 01:20:52;;;;;;;12.30;3.20;;;10.70;99.90;;;;;;4996751;28;20198;-82
2023/01/13 01:23:19;;;;;;;9.03;3.00;;;10.70;99.90;;;;;;5014652;28;20878;-82
2023/01/13 01:25:45;;;;;;;10.83;3.20;;;10.70;99.90;;;;;;5010545;28;20231;-82
2023/01/13 01:28:12;;;;;;;9.23;3.23;;;10.70;99.90;;;;;;5013192;28;20237;-82
2023/01/13 01:30:39;;;;;;;13.50;3.57;;;10.60;99.90;;;;;;4995128;28;20370;-82
2023/01/13 01:33:06;;;;;;;16.63;3.90;;;11.00;99.90;;;;;;5011137;28;20198;-82
2023/01/13 01:35:38;;;;;;;15.17;4.00;;;10.50;99.90;;;;;;5011918;28;20705;-82
2023/01/13 01:38:05;;;;;;;12.60;3.50;;;10.50;99.90;;;;;;4992528;28;20253;-81
2023/01/13 01:40:33;;;;;;;15.77;4.00;;;10.50;99.90;;;;;;5012739;28;20206;-81
2023/01/13 01:45:44;;;;;;;20.40;3.90;;;10.50;99.90;;;;;;5008313;28;20221;-82
2023/01/13 01:48:12;;;;;;;13.37;4.13;;;10.50;99.90;;;;;;4996457;28;20237;-82
2023/01/13 01:50:40;;;;;;;13.40;3.40;;;10.50;99.90;;;;;;5013610;28;20730;-83
2023/01/13 01:53:11;;;;;;;15.60;4.30;;;10.50;99.90;;;;;;5015987;28;20241;-82
2023/01/13 01:55:39;;;;;;;15.67;3.13;;;10.50;99.90;;;;;;5016553;28;20247;-82
2023/01/13 01:58:10;;;;;;;17.07;4.43;;;10.40;99.90;;;;;;5004489;28;20234;-82
2023/01/13 02:00:37;;;;;;;16.97;3.87;;;10.30;99.90;;;;;;5014991;28;20304;-82
2023/01/13 02:03:06;;;;;;;15.20;4.27;;;10.30;99.90;;;;;;5013748;28;20286;-81
2023/01/13 02:05:33;;;;;;;17.43;3.73;;;10.20;99.90;;;;;;5026966;28;20211;-81
2023/01/13 02:08:02;;;;;;;16.63;3.90;;;10.10;99.90;;;;;;5027308;28;20348;-82
2023/01/13 02:10:31;;;;;;;14.43;4.20;;;10.00;99.90;;;;;;5027878;28;20217;-81
2023/01/13 02:13:01;;;;;;;14.57;3.73;;;9.90;99.90;;;;;;5013147;28;20225;-81
2023/01/13 02:15:35;;;;;;;14.93;4.37;;;9.90;99.90;;;;;;5011949;28;20236;-81
2023/01/13 02:18:16;;;;;;;19.37;4.33;;;9.80;99.90;;;;;;5012164;28;20347;-82
2023/01/13 02:20:56;;;;;;;12.93;3.70;;;9.80;99.90;;;;;;5039751;28;20210;-81
2023/01/13 02:27:17;;;;;;;11.70;4.50;;;9.70;99.90;;;;;;5025336;28;20237;-81
2023/01/13 02:32:50;;;;;;;18.73;4.03;;;9.70;99.90;;;;;;5009451;28;20339;-82
2023/01/13 02:35:24;;;;;;;13.30;3.67;;;9.70;99.90;;;;;;5018665;28;20209;-81
2023/01/13 02:37:53;;;;;;;17.23;3.83;;;9.60;99.90;;;;;;5015043;28;20279;-81
2023/01/13 02:40:25;;;;;;;15.83;4.00;;;9.60;99.90;;;;;;5019713;28;20613;-81
2023/01/13 02:45:51;;;;;;;14.50;4.20;;;9.60;99.90;;;;;;5033101;28;20297;-82
2023/01/13 02:48:20;;;;;;;16.83;4.03;;;9.50;99.90;;;;;;5021390;28;20724;-82
2023/01/13 02:50:56;;;;;;;16.00;4.00;;;9.50;99.90;;;;;;5035613;28;20240;-82
2023/01/13 02:53:28;;;;;;;17.37;4.60;;;9.50;99.90;;;;;;5011942;28;20571;-81
2023/01/13 02:55:58;;;;;;;22.40;4.17;;;9.40;99.90;;;;;;5011368;28;20293;-81
2023/01/13 02:58:28;;;;;;;14.53;3.97;;;9.30;99.90;;;;;;5018379;28;20236;-81
2023/01/13 03:00:57;;;;;;;17.67;4.63;;;9.30;99.90;;;;;;5001588;28;20225;-82
2023/01/13 03:03:24;;;;;;;25.10;5.03;;;9.30;99.90;;;;;;5018452;28;20210;-81
2023/01/13 03:05:55;;;;;;;14.93;3.57;;;9.30;99.90;;;;;;5017395;28;20213;-81
2023/01/13 03:08:33;;;;;;;15.87;4.47;;;9.20;99.90;;;;;;5015159;28;20232;-81
2023/01/13 03:11:03;;;;;;;18.20;4.10;;;9.20;99.90;;;;;;5016657;28;20204;-81
2023/01/13 03:13:55;;;;;;;20.00;4.20;;;9.10;99.90;;;;;;5017238;28;20220;-82
2023/01/13 03:16:31;;;;;;;15.20;3.50;;;9.10;99.90;;;;;;5000909;28;20234;-82
2023/01/13 03:19:12;;;;;;;20.60;4.27;;;9.00;99.90;;;;;;5018925;28;20228;-81
2023/01/13 03:21:44;;;;;;;19.47;4.07;;;9.00;99.90;;;;;;5015789;28;20216;-81
2023/01/13 03:24:17;;;;;;;13.47;3.53;;;8.90;99.90;;;;;;5015705;28;20206;-81
2023/01/13 03:26:48;;;;;;;15.53;3.67;;;8.80;99.90;;;;;;5013210;28;20206;-81
2023/01/13 03:29:20;;;;;;;16.57;3.43;;;8.70;99.90;;;;;;4996639;28;20237;-81
2023/01/13 03:31:58;;;;;;;16.57;3.33;;;8.70;99.90;;;;;;5011034;28;20217;-81
2023/01/13 03:34:31;;;;;;;13.97;3.83;;;8.60;99.90;;;;;;5014356;28;20582;-81
2023/01/13 03:37:02;;;;;;;17.73;4.13;;;8.50;99.90;;;;;;4991764;28;20320;-81
2023/01/13 03:39:33;;;;;;;15.10;3.20;;;8.50;99.90;;;;;;5012427;28;20234;-81
2023/01/13 03:42:05;;;;;;;19.97;4.60;;;8.40;99.90;;;;;;4997707;28;20704;-81
2023/01/13 03:44:34;;;;;;;13.83;3.70;;;8.30;99.90;;;;;;5017463;28;20206;-81
2023/01/13 03:47:11;;;;;;;14.20;3.50;;;8.30;99.90;;;;;;5014670;28;20202;-84
2023/01/13 03:49:44;;;;;;;13.90;3.37;;;8.20;99.90;;;;;;5014792;28;20240;-82
2023/01/13 03:52:16;;;;;;;13.77;3.20;;;8.10;99.90;;;;;;5007152;28;20706;-87
2023/01/13 03:54:49;;;;;;;14.97;3.47;;;8.10;99.90;;;;;;5006900;28;20872;-81
2023/01/13 03:57:19;;;;;;;14.00;3.47;;;8.10;99.90;;;;;;4996311;28;20202;-84
2023/01/13 03:59:50;;;;;;;12.10;3.47;;;8.10;99.90;;;;;;4997089;28;20230;-83
2023/01/13 04:02:24;;;;;;;16.07;3.50;;;7.10;99.90;;;;;;5032846;28;20215;-82
2023/01/13 04:04:56;;;;;;;15.20;3.37;;;8.00;99.90;;;;;;5003638;28;20546;-82
2023/01/13 04:07:33;;;;;;;14.70;3.67;;;8.00;99.90;;;;;;4997846;28;20218;-81
2023/01/13 04:10:05;;;;;;;13.20;3.50;;;7.90;99.90;;;;;;5008584;28;20249;-85
2023/01/13 04:15:17;;;;;;;12.10;3.20;;;7.90;99.90;;;;;;5011265;28;20226;-81
2023/01/13 04:17:45;;;;;;;16.63;3.73;;;7.90;99.90;;;;;;5011457;28;20219;-81
2023/01/13 04:20:13;;;;;;;15.00;3.00;;;7.90;99.90;;;;;;5025949;28;20210;-81
2023/01/13 04:22:40;;;;;;;17.30;3.87;;;8.00;99.90;;;;;;5032605;28;20204;-82
2023/01/13 04:25:08;;;;;;;14.30;3.40;;;8.10;99.90;;;;;;5016544;28;20218;-81
2023/01/13 04:27:35;;;;;;;14.40;3.60;;;8.20;99.90;;;;;;4990907;28;20229;-81
2023/01/13 04:30:03;;;;;;;14.73;4.40;;;8.30;99.90;;;;;;5011789;28;20233;-81
2023/01/13 04:32:30;;;;;;;16.93;3.87;;;8.40;99.90;;;;;;5010911;28;20223;-81
2023/01/13 04:34:58;;;;;;;17.50;4.33;;;9.60;99.90;;;;;;5012318;28;20230;-82
2023/01/13 04:37:25;;;;;;;14.63;3.43;;;8.60;99.90;;;;;;5011859;28;20204;-81
2023/01/13 04:39:52;;;;;;;14.00;3.57;;;8.60;99.90;;;;;;5010651;28;20229;-81
2023/01/13 04:42:19;;;;;;;12.60;3.40;;;8.70;99.90;;;;;;5023563;28;20709;-81
2023/01/13 04:44:46;;;;;;;18.33;3.90;;;8.80;99.90;;;;;;5012263;28;20210;-81
2023/01/13 04:47:13;;;;;;;18.27;4.60;;;8.90;99.90;;;;;;4989992;28;20217;-81
2023/01/13 04:49:39;;;;;;;17.33;4.10;;;8.90;99.90;;;;;;4993454;28;20309;-81
2023/01/13 04:52:08;;;;;;;17.17;4.00;;;9.00;99.90;;;;;;5011194;28;20202;-81
2023/01/13 04:54:35;;;;;;;21.57;4.87;;;9.10;99.90;;;;;;5012342;28;20237;-81
2023/01/13 04:57:02;;;;;;;20.47;4.27;;;9.10;99.90;;;;;;5011937;28;20210;-81
2023/01/13 04:59:29;;;;;;;17.83;4.10;;;9.20;99.90;;;;;;4992511;28;20261;-81
2023/01/13 05:01:56;;;;;;;19.23;4.03;;;9.20;99.90;;;;;;4992309;28;20683;-81
2023/01/13 05:04:23;;;;;;;18.50;4.77;;;9.30;99.90;;;;;;4996607;28;20241;-81
2023/01/13 05:06:49;;;;;;;14.67;3.77;;;9.30;99.90;;;;;;5011041;28;20195;-81
2023/01/13 05:09:18;;;;;;;21.83;4.17;;;9.30;99.90;;;;;;4993916;28;20237;-80
2023/01/13 05:17:19;;;;;;;18.70;4.33;;;9.30;99.90;;;;;;5014254;28;20206;-82
2023/01/13 05:19:47;;;;;;;21.03;4.03;;;9.30;99.90;;;;;;4990236;28;20729;-82
2023/01/13 05:27:44;;;;;;;14.37;4.13;;;9.30;99.90;;;;;;5008440;28;20285;-81
2023/01/13 05:30:12;;;;;;;19.73;4.03;;;9.30;99.90;;;;;;5014719;28;20210;-81
2023/01/13 05:32:39;;;;;;;17.90;3.37;;;9.30;99.90;;;;;;4997713;28;20221;-81
2023/01/13 05:35:06;;;;;;;15.90;3.93;;;9.30;99.90;;;;;;5019611;28;20281;-83
2023/01/13 05:37:33;;;;;;;15.87;4.53;;;9.30;99.90;;;;;;4994529;28;20216;-83
2023/01/13 05:45:32;;;;;;;13.20;3.10;;;9.20;99.90;;;;;;5027502;28;20620;-84
2023/01/13 05:47:59;;;;;;;18.60;3.80;;;9.20;99.90;;;;;;5032525;28;20200;-81
2023/01/13 05:50:25;;;;;;;13.97;3.20;;;9.20;99.90;;;;;;5015049;28;20203;-83
2023/01/13 05:52:52;;;;;;;16.10;3.90;;;9.10;99.90;;;;;;5008589;28;20216;-81
2023/01/13 05:55:21;;;;;;;19.33;4.80;;;9.00;99.90;;;;;;5014031;28;20730;-81
2023/01/13 05:57:48;;;;;;;20.47;4.77;;;8.90;99.90;;;;;;5009772;28;20202;-81
2023/01/13 06:00:16;;;;;;;17.37;4.63;;;8.90;99.90;;;;;;5010375;28;20203;-82
2023/01/13 06:02:43;;;;;;;15.93;3.83;;;8.80;99.90;;;;;;5009682;28;20203;-82
2023/01/13 06:05:09;;;;;;;20.20;4.33;;;8.80;99.90;;;;;;5015614;28;20202;-81
2023/01/13 06:07:36;;;;;;;17.17;4.27;;;8.90;99.90;;;;;;5025279;28;20219;-82
2023/01/13 06:10:04;;;;;;;19.87;4.33;;;8.90;99.90;;;;;;5012540;28;20922;-81
2023/01/13 06:12:32;;;;;;;16.57;3.93;;;8.90;99.90;;;;;;5012953;28;20698;-80
2023/01/13 06:14:59;;;;;;;16.10;4.17;;;8.90;99.90;;;;;;5018044;28;20205;-81
2023/01/13 06:17:26;;;;;;;18.23;3.83;;;8.80;99.90;;;;;;5023631;28;20302;-81
2023/01/13 06:19:53;;;;;;;16.73;4.07;;;8.80;99.90;;;;;;5023942;28;20219;-80
2023/01/13 06:22:24;;;;;;;23.80;4.43;;;8.70;99.90;;;;;;4994104;28;20206;-81
2023/01/13 06:24:53;;;;;;;14.60;3.70;;;8.70;99.90;;;;;;5007573;28;20202;-81
2023/01/13 06:27:21;;;;;;;19.27;4.10;;;8.60;99.90;;;;;;5012531;28;20550;-81
2023/01/13 06:29:50;;;;;;;19.00;4.47;;;8.50;99.90;;;;;;5012501;28;20233;-80
2023/01/13 06:32:20;;;;;;;15.83;3.97;;;8.50;99.90;;;;;;4991748;28;20223;-80
2023/01/13 06:34:50;;;;;;;11.60;3.20;;;8.40;99.90;;;;;;5006756;28;20725;-80
2023/01/13 06:37:24;;;;;;;13.37;3.23;;;8.30;99.90;;;;;;5009966;28;20215;-80
2023/01/13 06:39:52;;;;;;;14.90;3.90;;;8.30;99.90;;;;;;4997197;28;20238;-81
2023/01/13 06:45:06;;;;;;;15.83;3.57;;;8.20;99.90;;;;;;5014863;28;20196;-81
2023/01/13 06:47:33;;;;;;;12.00;4.10;;;8.10;99.90;;;;;;5020799;28;20207;-82
2023/01/13 06:50:00;;;;;;;14.03;3.80;;;;;;;;;;5023122;28;20728;-82
2023/01/13 06:52:29;;;;;;;16.60;3.40;;;8.10;99.90;;;;;;5022543;28;20584;-82
2023/01/13 06:54:56;;;;;;;19.03;4.03;;;8.10;99.90;;;;;;5007917;28;21192;-81
2023/01/13 06:57:23;;;;;;;17.23;4.00;;;8.10;99.90;;;;;;5019426;28;20686;-81
2023/01/13 06:59:50;;;;;;;11.23;3.20;;;8.00;99.90;;;;;;5017979;28;20229;-81
2023/01/13 07:02:19;;;;;;;15.67;4.53;;;7.80;99.90;;;;;;5016727;28;20462;-80
2023/01/13 07:04:46;;;;;;;12.70;3.43;;;8.00;99.90;;;;;;5016304;28;20223;-82
2023/01/13 07:07:13;;;;;;;19.90;4.30;;;8.00;99.90;;;;;;5014680;28;20201;-82
2023/01/13 07:09:42;;;;;;;16.83;4.30;;;8.00;99.90;;;;;;5000650;28;20237;-81
2023/01/13 07:12:10;;;;;;;11.83;3.27;;;8.00;99.90;;;;;;5016520;28;20236;-81
2023/01/13 07:17:39;;;;;;;21.90;4.27;;;8.00;99.90;;;;;;4935037;29;20240;-80
2023/01/13 07:20:07;;;;;;;16.00;3.77;;;8.10;99.90;;;;;;4929632;29;20218;-81
2023/01/13 07:22:34;;;;;;;13.20;3.20;;;8.10;99.90;;;;;;4969472;28;20230;-81
2023/01/13 07:25:01;;;;;;;14.40;4.10;;;8.10;99.90;;;;;;5014090;28;20227;-81
2023/01/13 07:27:29;;;;;;;15.47;4.73;;;8.00;99.90;;;;;;5012534;28;20223;-81
2023/01/13 07:29:56;;;;;;;16.23;3.63;;;8.00;99.90;;;;;;4995867;28;20615;-81
2023/01/13 07:32:23;;;;;;;17.60;4.10;;;8.00;99.90;;;;;;5001759;28;20272;-81
2023/01/13 07:34:51;;;;;;;21.60;4.90;;;8.00;99.90;;;;;;5014613;28;20306;-81
2023/01/13 07:37:18;;;;;;;13.90;3.83;;;8.10;99.90;;;;;;5012667;28;20224;-81
2023/01/13 07:39:45;;;;;;;20.00;3.97;;;8.10;99.90;;;;;;5014957;28;20276;-81
2023/01/13 07:44:56;;;;;;;17.23;4.57;;;8.30;99.90;;;;;;5014921;28;20261;-84
2023/01/13 07:47:23;;;;;;;14.07;3.80;;;8.40;99.90;;;;;;5010832;28;20208;-82
2023/01/13 07:49:51;;;;;;;13.70;3.97;;;8.50;99.90;;;;;;5011654;28;20237;-82
2023/01/13 07:52:18;;;;;;;12.20;3.13;;;8.60;99.90;;;;;;5012354;28;20206;-82
2023/01/13 07:54:45;;;;;;;18.27;4.03;;;8.70;99.90;;;;;;4998157;28;20207;-82
2023/01/13 07:57:12;;;;;;;14.53;3.80;;;8.70;99.90;;;;;;5000207;28;20282;-79
2023/01/13 07:59:39;;;;;;;14.07;3.60;;;8.80;99.90;;;;;;5023637;28;20230;-80
2023/01/13 08:02:06;;;;;;;13.93;3.80;;;8.90;99.90;;;;;;5003080;28;20298;-82
2023/01/13 08:04:34;;;;;;;15.97;4.63;;;9.00;99.90;;;;;;5016486;28;20202;-80
2023/01/13 08:14:49;;;;;;;15.10;3.80;;;;;;;;;;5016802;28;20197;-84
2023/01/13 08:17:15;;;;;;;12.80;3.57;;;9.20;99.90;;;;;;5013395;28;20237;-83
2023/01/13 08:19:43;;;;;;;11.20;3.60;;;;;;;;;;5367462;22;20236;-87
2023/01/13 08:22:11;;;;;;;15.87;3.47;;;9.20;99.90;;;;;;5036044;28;20213;-86
2023/01/13 08:24:42;;;;;;;14.33;3.77;;;9.30;99.90;;;;;;5027950;28;20205;-81
2023/01/13 08:27:09;;;;;;;16.10;3.90;;;9.30;99.90;;;;;;5027870;28;20202;-85
2023/01/13 08:29:36;;;;;;;20.83;4.13;;;9.30;99.90;;;;;;5009765;28;20202;-80
2023/01/13 08:32:07;;;;;;;15.97;4.53;;;9.30;99.90;;;;;;5028030;28;20201;-85
2023/01/13 08:34:36;;;;;;;20.03;4.93;;;9.40;99.90;;;;;;5011034;28;20680;-83
2023/01/13 08:37:05;;;;;;;21.03;4.27;;;9.40;99.90;;;;;;5007691;28;20778;-84
2023/01/13 08:39:34;;;;;;;16.60;4.13;;;9.40;99.90;;;;;;5025254;28;20224;-83
2023/01/13 08:42:03;;;;;;;19.80;4.37;;;9.40;99.90;;;;;;5009930;28;20214;-82
2023/01/13 08:44:31;;;;;;;18.03;4.07;;;9.40;99.90;;;;;;5027165;28;20209;-84
2023/01/13 08:47:00;;;;;;;18.17;3.70;;;9.20;99.90;;;;;;5016771;28;20295;-85
2023/01/13 08:49:27;;;;;;;10.93;3.40;;;9.50;99.90;;;;;;5017721;28;20290;-87
2023/01/13 08:51:55;;;;;;;15.80;3.43;;;9.50;99.90;;;;;;5017542;28;20221;-82
2023/01/13 08:54:22;;;;;;;18.37;3.37;;;9.50;99.90;;;;;;5017238;28;20407;-86
2023/01/13 08:56:49;;;;;;;16.53;4.10;;;9.50;99.90;;;;;;5038011;22;20256;-84
2023/01/13 08:59:19;;;;;;;19.27;4.40;;;9.50;99.90;;;;;;5037028;28;20201;-83
2023/01/13 09:01:46;;;;;;;22.40;4.37;;;9.60;99.90;;;;;;5037975;28;20197;-83
2023/01/13 09:04:17;;;;;;;14.00;4.10;;;9.60;99.90;;;;;;5043937;28;20178;-83
2023/01/13 09:06:45;;;;;;;14.80;3.40;;;9.60;99.90;;;;;;5050800;28;20224;-84
2023/01/13 09:09:12;;;;;;;14.13;3.50;;;9.60;99.90;;;;;;5051196;28;20188;-84
2023/01/13 09:14:30;;;;;;;21.47;3.87;;;9.70;99.90;;;;;;5048963;28;20185;-85
2023/01/13 09:16:59;;;;;;;10.37;3.20;;;9.80;99.90;;;;;;5049874;28;20238;-85
2023/01/13 09:19:26;;;;;;;13.17;3.97;;;9.70;99.90;;;;;;5040531;28;20201;-84
2023/01/13 09:21:53;;;;;;;19.80;4.43;;;9.70;99.90;;;;;;5052312;28;20292;-84
2023/01/13 09:24:21;;;;;;;18.00;4.33;;;9.70;99.90;;;;;;5047140;28;20222;-85
2023/01/13 09:26:49;;;;;;;21.23;4.53;;;9.60;99.90;;;;;;5031792;28;20217;-84
2023/01/13 09:29:17;;;;;;;15.67;4.10;;;9.60;99.90;;;;;;5035071;28;20193;-85
2023/01/13 09:31:46;;;;;;;15.27;3.77;;;9.50;99.90;;;;;;5034488;28;20268;-85
2023/01/13 09:36:59;;;;;;;15.30;3.87;;;9.60;99.90;;;;;;5034793;28;20706;-84
2023/01/13 09:39:26;;;;;;;19.33;4.17;;;9.60;99.90;;;;;;5043710;28;20203;-84
2023/01/13 09:44:49;;;;;;;20.10;4.83;;;9.80;99.90;;;;;;5037743;28;20194;-84
2023/01/13 09:47:24;;;;;;;13.90;3.60;;;9.70;99.90;;;;;;5036733;28;20288;-84
2023/01/13 09:49:51;;;;;;;21.67;4.73;;;9.80;99.90;;;;;;5030504;28;20284;-85
2023/01/13 09:52:21;;;;;;;15.97;4.30;;;9.80;99.90;;;;;;5047320;28;20213;-84
2023/01/13 09:54:51;;;;;;;15.67;4.87;;;9.90;99.90;;;;;;5037893;28;20762;-85
2023/01/13 09:57:20;;;;;;;17.47;4.07;;;9.90;99.90;;;;;;5037169;28;20217;-84
2023/01/13 09:59:47;;;;;;;18.90;5.77;;;9.90;99.90;;;;;;5037112;28;20291;-84
2023/01/13 10:02:40;;;;;;;13.87;4.00;;;9.90;99.90;;;;;;5056483;28;20272;-83
2023/01/13 10:05:15;;;;;;;15.20;4.20;;;10.00;99.90;;;;;;5031622;28;20262;-85
2023/01/13 10:07:48;;;;;;;15.77;4.90;;;10.00;99.90;;;;;;5046968;28;20205;-83
2023/01/13 10:10:22;;;;;;;17.40;5.27;;;10.20;99.90;;;;;;5045396;28;20238;-84
2023/01/13 10:15:35;;;;;;;18.00;4.53;;;10.40;99.90;;;;;;5047799;28;20598;-82
2023/01/13 10:18:12;;;;;;;15.30;4.00;;;10.50;99.90;;;;;;5054303;28;20220;-83
2023/01/13 10:20:52;;;;;;;15.97;4.27;;;10.60;99.90;;;;;;5046501;28;20299;-83
2023/01/13 10:23:56;;;;;;;21.33;4.67;;;10.70;99.90;;;;;;5047583;28;20212;-82
2023/01/13 10:26:39;;;;;;;12.90;4.00;;;10.70;99.90;;;;;;4985391;28;20250;-83
2023/01/13 10:29:19;;;;;;;21.70;4.80;;;10.80;99.90;;;;;;4968515;28;20224;-82
2023/01/13 10:31:46;;;;;;;18.77;4.33;;;10.90;99.90;;;;;;5007177;28;20221;-87
2023/01/13 10:34:16;;;;;;;16.20;4.37;;;11.10;99.90;;;;;;5049121;28;20272;-82
2023/01/13 10:37:05;;;;;;;16.90;4.00;;;11.20;99.90;;;;;;5029811;28;20222;-83
2023/01/13 10:39:41;;;;;;;15.53;4.17;;;11.40;99.90;;;;;;5031649;28;20259;-84
2023/01/13 10:42:14;;;;;;;18.90;4.10;;;11.70;99.90;;;;;;5027033;28;20209;-83
2023/01/13 10:44:53;;;;;;;16.93;4.60;;;12.30;99.90;;;;;;5047901;28;20578;-82
2023/01/13 10:47:24;;;;;;;14.20;5.00;;;12.30;99.90;;;;;;5045741;28;20285;-82
2023/01/13 10:50:19;;;;;;;18.70;5.13;;;12.50;99.90;;;;;;5043190;28;20213;-82
2023/01/13 10:52:58;;;;;;;18.17;4.90;;;12.70;99.90;;;;;;5042997;28;20205;-82
2023/01/13 10:55:28;;;;;;;19.30;4.87;;;12.60;99.90;;;;;;5049303;28;20237;-84
2023/01/13 10:57:56;;;;;;;22.10;5.30;;;12.60;99.90;;;;;;5039590;28;20311;-84
2023/01/13 11:00:29;;;;;;;17.73;5.00;;;12.40;99.90;;;;;;5050645;28;20209;-84
2023/01/13 11:03:15;;;;;;;17.53;4.70;;;12.40;99.90;;;;;;5059459;28;20270;-84
2023/01/13 11:05:51;;;;;;;18.37;4.77;;;12.20;99.90;;;;;;5047761;28;20304;-84
2023/01/13 11:08:20;;;;;;;20.37;5.77;;;12.00;99.90;;;;;;5045676;28;20668;-85
2023/01/13 11:10:49;;;;;;;18.70;5.40;;;11.70;99.90;;;;;;5013130;28;20213;-84
2023/01/13 11:13:21;;;;;;;25.10;6.27;;;11.40;99.90;;;;;;5038744;28;20209;-85
2023/01/13 11:15:55;;;;;;;15.67;4.97;;;11.10;99.90;;;;;;5047450;28;20228;-84
2023/01/13 11:18:28;;;;;;;19.33;4.43;;;10.90;99.90;;;;;;5055139;28;20213;-85
2023/01/13 11:21:01;;;;;;;18.20;5.53;;;10.90;99.90;;;;;;5035164;28;20288;-85
2023/01/13 11:23:34;;;;;;;24.20;5.83;;;10.80;99.90;;;;;;5058923;28;20227;-84
2023/01/13 11:26:05;;;;;;;25.13;7.23;;;10.80;99.90;;;;;;5063696;28;20669;-83
2023/01/13 11:28:41;;;;;;;18.10;5.40;;;10.90;99.90;;;;;;5065841;28;20268;-84
2023/01/13 11:31:14;;;;;;;24.53;6.20;;;10.90;99.90;;;;;;5065123;28;20230;-83
2023/01/13 11:33:45;;;;;;;22.87;4.87;;;10.90;99.90;;;;;;5067516;28;20269;-84
2023/01/13 11:36:20;;;;;;;11.93;3.63;;;10.80;99.90;;;;;;5062450;28;20690;-81
2023/01/13 11:38:50;;;;;;;22.53;4.60;;;10.90;99.90;;;;;;5051133;28;20236;-82
2023/01/13 11:41:30;;;;;;;15.93;4.47;;;10.90;99.90;;;;;;5060792;28;20186;-83
2023/01/13 11:44:06;;;;;;;24.17;5.70;;;10.90;99.90;;;;;;5067689;28;20753;-82
2023/01/13 11:46:33;;;;;;;16.27;5.33;;;11.10;99.90;;;;;;5058611;28;20606;-83
2023/01/13 11:49:01;;;;;;;21.13;4.70;;;11.00;99.90;;;;;;5067924;28;20201;-83
2023/01/13 11:51:38;;;;;;;27.33;6.03;;;11.00;99.90;;;;;;5052792;28;20219;-82
2023/01/13 11:54:23;;;;;;;16.37;3.57;;;10.90;99.90;;;;;;5047948;28;20211;-82
2023/01/13 11:57:24;;;;;;;19.97;5.70;;;10.90;99.90;;;;;;5064844;28;20235;-83
2023/01/13 12:00:09;;;;;;;25.17;6.43;;;10.70;99.90;;;;;;5058590;28;20247;-82
2023/01/13 12:02:52;;;;;;;16.70;5.13;;;10.60;99.90;;;;;;5068427;28;20274;-83
2023/01/13 12:05:29;;;;;;;22.20;5.83;;;10.60;99.90;;;;;;5058580;28;20315;-84
2023/01/13 12:08:10;;;;;;;27.97;6.50;;;10.50;99.90;;;;;;5030294;28;20208;-84
2023/01/13 12:10:53;;;;;;;23.17;6.30;;;10.40;99.90;;;;;;5032024;28;20677;-82
2023/01/13 12:13:31;;;;;;;15.20;4.70;;;10.30;99.90;;;;;;5039492;28;20232;-84
2023/01/13 12:16:24;;;;;;;17.47;5.60;;;10.20;99.90;;;;;;5036953;28;20237;-84
2023/01/13 12:19:20;;;;;;;17.70;5.37;;;10.00;99.90;;;;;;5043363;28;20217;-85
2023/01/13 12:21:58;;;;;;;16.07;4.00;;;9.70;99.90;;;;;;5034340;28;20257;-84
2023/01/13 12:24:31;;;;;;;14.07;4.23;;;9.50;99.90;;;;;;5049152;28;20201;-85
2023/01/13 12:27:02;;;;;;;13.63;3.50;;;9.40;99.90;;;;;;5044263;28;20349;-85
2023/01/13 12:29:37;;;;;;;9.70;3.13;;;9.20;99.90;;;;;;5030674;28;20298;-85
2023/01/13 12:32:07;;;;;;;10.57;3.60;;;9.00;99.90;;;;;;5033351;28;20280;-85
2023/01/13 12:34:49;;;;;;;17.33;4.33;;;9.00;99.90;;;;;;5059363;28;20279;-85
2023/01/13 12:37:23;;;;;;;11.47;3.87;;;8.90;99.90;;;;;;5055895;28;20221;-85
2023/01/13 12:40:11;;;;;;;10.83;3.37;;;8.90;99.90;;;;;;5024407;28;20382;-84
2023/01/13 12:45:31;;;;;;;17.50;7.00;;;9.00;99.90;;;;;;5056128;28;20231;-86
2023/01/13 12:47:59;;;;;;;23.47;7.73;;;9.10;99.90;;;;;;5033035;28;21627;-86
2023/01/13 12:50:59;;;;;;;23.23;6.97;;;9.30;99.90;;;;;;5057888;28;20207;-86
2023/01/13 12:53:37;;;;;;;20.97;5.43;;;9.40;99.90;;;;;;5040508;28;20213;-86
2023/01/13 12:56:37;;;;;;;21.73;6.57;;;9.50;99.90;;;;;;5042278;28;20232;-85
2023/01/13 12:59:47;;;;;;;17.93;5.87;;;9.60;99.90;;;;;;5028821;28;20224;-86
2023/01/13 13:02:43;;;;;;;24.90;7.53;;;9.70;99.90;;;;;;5040823;28;20225;-85
2023/01/13 13:05:40;;;;;;;24.77;7.27;;;9.70;99.90;;;;;;5012797;28;20255;-86
2023/01/13 13:08:17;;;;;;;24.47;7.50;;;9.80;99.90;;;;;;5052541;28;20634;-85
2023/01/13 13:10:56;;;;;;;33.23;7.20;;;9.90;99.90;;;;;;5048132;28;20213;-85
2023/01/13 13:13:42;;;;;;;25.17;5.53;;;10.00;99.90;;;;;;5035466;28;20205;-86
2023/01/13 13:16:45;;;;;;;19.77;6.03;;;10.10;99.90;;;;;;5028984;28;20225;-85
2023/01/13 13:19:48;;;;;;;16.50;4.97;;;10.20;99.90;;;;;;5021185;28;20244;-86
2023/01/13 13:22:50;;;;;;;21.20;6.40;;;10.20;99.90;;;;;;5033073;28;20584;-86
2023/01/13 13:25:23;;;;;;;21.50;4.80;;;10.20;99.90;;;;;;5028062;28;20236;-86
2023/01/13 13:28:01;;;;;;;26.87;6.23;;;10.40;99.90;;;;;;5035173;28;20237;-85
2023/01/13 13:30:30;;;;;;;19.00;4.00;;;10.10;99.90;;;;;;5055375;28;20223;-85
2023/01/13 13:33:10;;;;;;;17.47;4.30;;;10.10;99.90;;;;;;5057346;28;20212;-85
2023/01/13 13:36:01;;;;;;;16.07;5.17;;;10.10;99.90;;;;;;5047977;28;20240;-85
2023/01/13 13:47:35;;;;;;;27.43;7.20;;;9.90;99.90;;;;;;5044616;28;20213;-84
2023/01/13 13:50:07;;;;;;;20.17;5.60;;;9.90;99.90;;;;;;5040551;28;20688;-85
2023/01/13 13:52:41;;;;;;;19.73;6.27;;;9.90;99.90;;;;;;5039306;28;20200;-85
2023/01/13 13:55:17;;;;;;;21.67;6.10;;;9.80;99.90;;;;;;5024928;28;21245;-87
2023/01/13 13:57:47;;;;;;;22.10;6.30;;;9.80;99.90;;;;;;5043612;28;20851;-86
2023/01/13 14:00:25;;;;;;;17.20;5.37;;;9.70;99.90;;;;;;5054702;28;20201;-85
2023/01/13 14:02:54;;;;;;;18.30;5.83;;;9.70;99.90;;;;;;5057901;28;20231;-86
2023/01/13 14:05:23;;;;;;;18.93;5.43;;;9.70;99.90;;;;;;5059912;28;20228;-86
2023/01/13 14:07:59;;;;;;;20.77;5.97;;;9.70;99.90;;;;;;5064330;28;20271;-85
2023/01/13 14:10:35;;;;;;;17.77;5.43;;;9.70;99.90;;;;;;5042339;28;20605;-85
2023/01/13 14:13:12;;;;;;;23.47;7.07;;;9.70;99.90;;;;;;5045039;28;20228;-84
2023/01/13 14:15:39;;;;;;;34.07;6.97;;;9.70;99.90;;;;;;5066095;28;20228;-85
2023/01/13 14:18:13;;;;;;;18.43;5.37;;;9.60;99.90;;;;;;5049390;28;20232;-85
2023/01/13 14:20:40;;;;;;;20.40;5.17;;;9.60;99.90;;;;;;5060311;28;20232;-85